createdAt,value
2022-08-30T00:02:07.577Z,4.87
2022-08-30T00:04:35.356Z,4.90
2022-08-30T00:07:03.752Z,4.20
2022-08-30T00:09:31.584Z,5.17
2022-08-30T00:11:58.403Z,4.60
2022-08-30T00:14:27.515Z,5.07
2022-08-30T00:16:54.410Z,5.00
2022-08-30T00:19:21.216Z,5.40
2022-08-30T00:21:47.964Z,5.47
2022-08-30T00:24:14.858Z,4.80
2022-08-30T00:26:41.617Z,5.03
2022-08-30T00:29:08.486Z,5.13
2022-08-30T00:31:35.254Z,5.73
2022-08-30T00:34:02.136Z,4.97
2022-08-30T00:36:29.340Z,4.93
2022-08-30T00:38:56.067Z,4.90
2022-08-30T00:41:22.997Z,5.20
2022-08-30T00:43:49.914Z,4.93
2022-08-30T00:46:16.715Z,5.43
2022-08-30T00:48:47.866Z,5.20
2022-08-30T00:51:15.680Z,5.40
2022-08-30T00:53:47.925Z,4.50
2022-08-30T00:56:16.436Z,4.90
2022-08-30T00:58:45.422Z,4.07
2022-08-30T01:01:13.664Z,4.53
2022-08-30T01:03:41.117Z,5.13
2022-08-30T01:06:08.056Z,4.30
2022-08-30T01:08:35.257Z,4.73
2022-08-30T01:11:03.640Z,4.60
2022-08-30T01:13:31.308Z,4.70
2022-08-30T01:15:59.920Z,4.97
2022-08-30T01:18:27.510Z,4.90
2022-08-30T01:21:13.228Z,4.80
2022-08-30T01:23:42.001Z,5.30
2022-08-30T01:26:10.244Z,4.97
2022-08-30T01:28:37.095Z,5.37
2022-08-30T01:31:04.578Z,5.03
2022-08-30T01:33:31.391Z,5.10
2022-08-30T01:36:01.559Z,5.43
2022-08-30T01:38:34.460Z,5.57
2022-08-30T01:41:08.522Z,5.20
2022-08-30T01:43:35.650Z,4.93
2022-08-30T01:46:04.755Z,5.30
2022-08-30T01:48:32.113Z,5.00
2022-08-30T01:50:58.940Z,5.10
2022-08-30T01:53:25.771Z,4.70
2022-08-30T01:55:52.539Z,5.10
2022-08-30T01:58:19.440Z,5.57
2022-08-30T02:00:46.279Z,5.70
2022-08-30T02:03:13.096Z,5.50
2022-08-30T02:05:39.949Z,6.03
2022-08-30T02:08:06.786Z,5.77
2022-08-30T02:10:33.640Z,5.73
2022-08-30T02:13:00.436Z,5.50
2022-08-30T02:15:27.296Z,5.83
2022-08-30T02:17:54.155Z,5.70
2022-08-30T02:20:21.078Z,5.70
2022-08-30T02:22:48.377Z,6.07
2022-08-30T02:25:20.867Z,5.90
2022-08-30T02:27:48.691Z,5.47
2022-08-30T02:30:15.437Z,5.77
2022-08-30T02:32:42.299Z,5.33
2022-08-30T02:35:09.540Z,6.03
2022-08-30T02:37:36.751Z,5.57
2022-08-30T02:40:04.048Z,6.00
2022-08-30T02:42:30.928Z,6.57
2022-08-30T02:44:57.686Z,6.40
2022-08-30T02:47:24.662Z,5.97
2022-08-30T02:49:51.402Z,6.40
2022-08-30T02:52:19.814Z,6.23
2022-08-30T02:54:54.903Z,5.77
2022-08-30T02:57:21.950Z,5.60
2022-08-30T02:59:49.219Z,5.90
2022-08-30T03:02:16.087Z,6.00
2022-08-30T03:04:44.960Z,6.37
2022-08-30T03:07:12.392Z,5.20
2022-08-30T03:09:39.589Z,6.10
2022-08-30T03:12:07.723Z,6.00
2022-08-30T03:14:36.164Z,5.90
2022-08-30T03:17:04.270Z,5.77
2022-08-30T03:19:31.066Z,6.27
2022-08-30T03:21:57.954Z,6.20
2022-08-30T03:24:25.904Z,6.30
2022-08-30T03:26:53.445Z,6.10
2022-08-30T03:29:20.176Z,6.03
2022-08-30T03:31:52.829Z,6.77
2022-08-30T03:34:21.777Z,6.20
2022-08-30T03:36:49.382Z,5.77
2022-08-30T03:39:16.175Z,5.73
2022-08-30T03:41:42.939Z,5.83
2022-08-30T03:44:10.024Z,5.83
2022-08-30T03:46:37.575Z,6.20
2022-08-30T03:49:05.569Z,5.80
2022-08-30T03:51:33.748Z,5.90
2022-08-30T03:54:01.498Z,5.60
2022-08-30T03:56:28.295Z,5.13
2022-08-30T03:58:55.144Z,5.60
2022-08-30T04:01:21.979Z,5.80
2022-08-30T04:03:48.922Z,6.13
2022-08-30T04:06:15.920Z,6.00
2022-08-30T04:08:44.753Z,5.63
2022-08-30T04:11:13.061Z,5.47
2022-08-30T04:13:39.855Z,5.40
2022-08-30T04:16:06.699Z,5.23
2022-08-30T04:18:34.669Z,5.20
2022-08-30T04:21:02.312Z,5.47
2022-08-30T04:23:29.244Z,4.87
2022-08-30T04:25:56.126Z,5.03
2022-08-30T04:28:23.252Z,5.83
2022-08-30T04:30:50.044Z,5.43
2022-08-30T04:33:17.018Z,5.27
2022-08-30T04:35:45.604Z,5.13
2022-08-30T04:38:13.543Z,5.80
2022-08-30T04:40:44.225Z,4.97
2022-08-30T04:43:12.805Z,5.70
2022-08-30T04:45:40.289Z,5.20
2022-08-30T04:48:07.381Z,5.67
2022-08-30T04:50:34.214Z,5.47
2022-08-30T04:53:12.257Z,6.03
2022-08-30T04:55:43.364Z,5.97
2022-08-30T04:58:10.951Z,5.97
2022-08-30T05:00:37.978Z,6.03
2022-08-30T05:03:04.894Z,5.77
2022-08-30T05:05:41.681Z,6.10
2022-08-30T05:08:09.779Z,5.50
2022-08-30T05:10:40.549Z,4.93
2022-08-30T05:13:07.580Z,5.23
2022-08-30T05:15:34.508Z,4.60
2022-08-30T05:18:01.996Z,5.30
2022-08-30T05:20:28.959Z,4.63
2022-08-30T05:22:55.972Z,4.80
2022-08-30T05:25:24.229Z,4.63
2022-08-30T05:27:51.203Z,4.57
2022-08-30T05:30:19.029Z,4.77
2022-08-30T05:32:45.932Z,4.77
2022-08-30T05:35:13.802Z,5.07
2022-08-30T05:37:41.014Z,4.70
2022-08-30T05:40:11.182Z,4.60
2022-08-30T05:42:38.686Z,4.80
2022-08-30T05:45:05.796Z,4.67
2022-08-30T05:47:32.697Z,4.50
2022-08-30T05:49:59.683Z,4.77
2022-08-30T05:52:26.450Z,4.60
2022-08-30T05:54:54.584Z,4.53
2022-08-30T05:57:21.880Z,4.20
2022-08-30T05:59:49.038Z,4.73
2022-08-30T06:02:15.915Z,3.87
2022-08-30T06:04:43.290Z,3.90
2022-08-30T06:07:13.011Z,4.60
2022-08-30T06:09:42.372Z,3.87
2022-08-30T06:12:09.305Z,3.90
2022-08-30T06:14:36.188Z,4.37
2022-08-30T06:17:02.974Z,3.70
2022-08-30T06:19:29.898Z,4.57
2022-08-30T06:21:56.871Z,4.27
2022-08-30T06:24:35.718Z,4.40
2022-08-30T06:27:11.005Z,5.23
2022-08-30T06:29:37.884Z,4.97
2022-08-30T06:32:04.920Z,5.50
2022-08-30T06:34:31.823Z,6.07
2022-08-30T06:36:58.610Z,6.40
2022-08-30T06:39:25.485Z,7.20
2022-08-30T06:41:52.321Z,7.17
2022-08-30T06:44:27.101Z,6.40
2022-08-30T06:46:53.955Z,6.60
2022-08-30T06:49:21.188Z,7.07
2022-08-30T06:51:48.248Z,7.07
2022-08-30T06:54:15.595Z,6.70
2022-08-30T06:56:55.528Z,7.17
2022-08-30T06:59:24.872Z,6.40
2022-08-30T07:01:52.257Z,5.93
2022-08-30T07:04:19.188Z,5.63
2022-08-30T07:06:46.088Z,4.77
2022-08-30T07:09:13.170Z,5.43
2022-08-30T07:11:41.283Z,5.70
2022-08-30T07:14:08.469Z,5.70
2022-08-30T07:16:35.539Z,5.40
2022-08-30T07:19:05.249Z,5.10
2022-08-30T07:21:32.136Z,6.00
2022-08-30T07:23:59.604Z,5.60
2022-08-30T07:26:27.707Z,5.20
2022-08-30T07:28:56.568Z,5.63
2022-08-30T07:31:23.834Z,5.27
2022-08-30T07:33:50.946Z,5.33
2022-08-30T07:36:17.949Z,5.47
2022-08-30T07:38:46.363Z,5.27
2022-08-30T07:41:18.046Z,6.23
2022-08-30T07:43:45.187Z,5.57
2022-08-30T07:46:12.258Z,5.77
2022-08-30T07:48:39.763Z,5.37
2022-08-30T07:51:11.085Z,5.77
2022-08-30T07:53:38.129Z,5.77
2022-08-30T07:56:06.225Z,5.53
2022-08-30T07:58:33.574Z,5.70
2022-08-30T08:01:01.929Z,5.30
2022-08-30T08:03:29.773Z,5.53
2022-08-30T08:05:56.686Z,5.77
2022-08-30T08:08:23.874Z,5.70
2022-08-30T08:10:50.689Z,5.30
2022-08-30T08:13:17.544Z,5.97
2022-08-30T08:15:44.381Z,5.83
2022-08-30T08:18:11.408Z,5.77
2022-08-30T08:20:38.225Z,5.93
2022-08-30T08:23:05.116Z,5.83
2022-08-30T08:25:32.011Z,5.80
2022-08-30T08:27:59.382Z,5.70
2022-08-30T08:30:26.180Z,5.60
2022-08-30T08:32:54.951Z,6.53
2022-08-30T08:35:21.789Z,6.10
2022-08-30T08:37:48.755Z,6.37
2022-08-30T08:40:19.361Z,5.70
2022-08-30T08:42:58.464Z,5.33
2022-08-30T08:45:43.538Z,5.63
2022-08-30T08:48:32.031Z,6.30
2022-08-30T08:51:36.218Z,5.57
2022-08-30T08:54:26.478Z,5.87
2022-08-30T08:56:53.745Z,5.83
2022-08-30T08:59:21.776Z,5.07
2022-08-30T09:01:50.898Z,5.73
2022-08-30T09:04:22.214Z,5.83
2022-08-30T09:06:52.323Z,5.70
2022-08-30T09:09:21.874Z,5.60
2022-08-30T09:11:48.866Z,5.23
2022-08-30T09:14:19.797Z,4.87
2022-08-30T09:17:13.031Z,5.23
2022-08-30T09:19:40.173Z,4.60
2022-08-30T09:22:21.646Z,4.40
2022-08-30T09:24:50.361Z,5.30
2022-08-30T09:27:23.792Z,4.90
2022-08-30T09:29:56.194Z,4.60
2022-08-30T09:32:28.276Z,4.97
2022-08-30T09:34:55.460Z,4.30
2022-08-30T09:37:33.719Z,4.37
2022-08-30T09:40:00.950Z,4.63
2022-08-30T09:42:28.946Z,4.18
2022-08-30T09:45:10.278Z,3.97
2022-08-30T09:47:40.083Z,4.25
2022-08-30T09:50:19.847Z,3.88
2022-08-30T09:53:09.855Z,3.40
2022-08-30T09:55:45.866Z,3.65
2022-08-30T09:58:17.792Z,3.70
2022-08-30T10:01:04.084Z,3.60
2022-08-30T10:03:40.233Z,3.63
2022-08-30T10:06:16.985Z,3.95
2022-08-30T10:09:22.650Z,3.40
2022-08-30T10:11:52.136Z,3.38
2022-08-30T10:14:21.549Z,3.22
2022-08-30T10:16:48.319Z,3.00
2022-08-30T10:19:25.157Z,3.22
2022-08-30T10:21:58.111Z,3.35
2022-08-30T10:24:32.810Z,3.38
2022-08-30T10:27:05.331Z,2.97
2022-08-30T10:29:34.258Z,3.38
2022-08-30T10:32:14.846Z,3.10
2022-08-30T10:34:46.250Z,3.22
2022-08-30T10:37:14.761Z,3.80
2022-08-30T10:39:47.335Z,3.55
2022-08-30T10:42:25.813Z,3.35
2022-08-30T10:44:56.763Z,3.40
2022-08-30T10:47:40.134Z,3.33
2022-08-30T10:50:18.760Z,3.40
2022-08-30T10:52:51.497Z,3.10
2022-08-30T10:55:23.131Z,3.40
2022-08-30T10:57:50.980Z,3.15
2022-08-30T11:00:33.089Z,3.70
2022-08-30T11:03:02.968Z,3.83
2022-08-30T11:05:29.909Z,3.40
2022-08-30T11:08:07.072Z,3.28
2022-08-30T11:10:58.858Z,3.72
2022-08-30T11:13:27.430Z,3.95
2022-08-30T11:16:15.331Z,3.40
2022-08-30T11:18:51.033Z,3.50
2022-08-30T11:21:32.335Z,3.13
2022-08-30T11:24:02.237Z,3.00
2022-08-30T11:26:57.210Z,3.00
2022-08-30T11:29:27.560Z,3.13
2022-08-30T11:31:55.254Z,3.50
2022-08-30T11:34:40.890Z,3.63
2022-08-30T11:37:09.804Z,2.95
2022-08-30T11:39:40.060Z,3.13
2022-08-30T11:42:12.152Z,3.08
2022-08-30T11:44:40.851Z,2.85
2022-08-30T11:47:26.726Z,2.97
2022-08-30T11:50:12.356Z,3.30
2022-08-30T11:52:48.807Z,3.20
2022-08-30T11:55:31.552Z,3.05
2022-08-30T11:58:17.526Z,3.03
2022-08-30T12:00:51.546Z,3.08
2022-08-30T12:03:20.553Z,2.90
2022-08-30T12:05:55.131Z,3.13
2022-08-30T12:08:35.229Z,2.80
2022-08-30T12:11:10.649Z,2.80
2022-08-30T12:13:37.659Z,2.90
2022-08-30T12:16:14.568Z,3.53
2022-08-30T12:18:45.439Z,2.60
2022-08-30T12:21:21.554Z,2.45
2022-08-30T12:23:55.010Z,2.53
2022-08-30T12:26:25.984Z,3.00
2022-08-30T12:29:05.066Z,3.05
2022-08-30T12:31:32.174Z,2.95
2022-08-30T12:34:03.139Z,2.70
2022-08-30T12:36:32.706Z,2.55
2022-08-30T12:39:07.571Z,2.70
2022-08-30T12:41:34.889Z,3.15
2022-08-30T12:44:19.648Z,2.85
2022-08-30T12:46:49.079Z,2.75
2022-08-30T12:49:17.680Z,3.00
2022-08-30T12:51:44.640Z,2.60
2022-08-30T12:54:14.723Z,2.75
2022-08-30T12:56:49.397Z,2.35
2022-08-30T12:59:36.493Z,2.83
2022-08-30T13:02:22.825Z,2.33
2022-08-30T13:04:50.781Z,2.92
2022-08-30T13:07:24.641Z,2.58
2022-08-30T13:09:59.487Z,2.67
2022-08-30T13:12:27.921Z,2.30
2022-08-30T13:15:12.931Z,2.72
2022-08-30T13:17:39.796Z,2.58
2022-08-30T13:20:06.743Z,2.67
2022-08-30T13:22:35.016Z,2.70
2022-08-30T13:25:02.479Z,2.60
2022-08-30T13:27:31.045Z,2.92
2022-08-30T13:29:58.227Z,2.58
2022-08-30T13:32:24.991Z,2.80
2022-08-30T13:34:51.817Z,2.80
2022-08-30T13:40:07.977Z,2.75
2022-08-30T13:42:36.060Z,2.60
2022-08-30T13:45:03.140Z,2.80
2022-08-30T13:47:35.010Z,3.07
2022-08-30T13:50:02.451Z,2.67
2022-08-30T13:52:29.249Z,3.00
2022-08-30T13:54:57.268Z,2.80
2022-08-30T14:00:14.776Z,2.53
2022-08-30T14:02:47.598Z,2.53
2022-08-30T14:05:46.685Z,3.00
2022-08-30T14:08:06.430Z,2.53
2022-08-30T14:10:33.840Z,2.80
2022-08-30T14:13:08.887Z,2.50
2022-08-30T14:15:39.330Z,2.90
2022-08-30T14:18:07.127Z,2.80
2022-08-30T14:20:35.404Z,3.30
2022-08-30T14:23:10.079Z,3.00
2022-08-30T14:25:37.584Z,3.10
2022-08-30T14:28:04.396Z,2.90
2022-08-30T14:30:31.719Z,2.90
2022-08-30T14:33:00.157Z,2.77
2022-08-30T14:35:26.921Z,3.10
2022-08-30T14:37:54.436Z,2.67
2022-08-30T14:40:21.540Z,3.10
2022-08-30T14:42:48.546Z,3.07
2022-08-30T14:45:15.440Z,3.03
2022-08-30T14:47:42.209Z,2.83
2022-08-30T14:50:09.162Z,2.83
2022-08-30T14:52:36.179Z,3.10
2022-08-30T14:55:08.420Z,2.40
2022-08-30T14:57:36.339Z,3.00
2022-08-30T15:00:06.913Z,3.00
2022-08-30T15:02:33.792Z,3.13
2022-08-30T15:05:01.818Z,3.20
2022-08-30T15:07:28.571Z,3.00
2022-08-30T15:09:55.344Z,3.07
2022-08-30T15:12:22.115Z,2.93
2022-08-30T15:14:48.965Z,3.00
2022-08-30T15:17:17.912Z,2.80
2022-08-30T15:19:45.408Z,3.10
2022-08-30T15:22:12.208Z,3.37
2022-08-30T15:24:40.785Z,3.07
2022-08-30T15:27:07.549Z,3.17
2022-08-30T15:29:34.432Z,3.17
2022-08-30T15:32:02.291Z,2.63
2022-08-30T15:34:29.959Z,3.20
2022-08-30T15:36:56.860Z,2.80
2022-08-30T15:39:24.281Z,3.20
2022-08-30T15:41:57.174Z,3.00
2022-08-30T15:44:26.703Z,2.80
2022-08-30T15:46:53.577Z,2.57
2022-08-30T15:49:23.144Z,3.33
2022-08-30T15:51:51.617Z,2.83
2022-08-30T15:54:22.331Z,2.80
2022-08-30T15:56:49.140Z,3.23
2022-08-30T15:59:17.459Z,2.90
2022-08-30T16:01:45.477Z,2.73
2022-08-30T16:04:14.922Z,2.70
2022-08-30T16:06:42.070Z,3.00
2022-08-30T16:09:09.805Z,3.00
2022-08-30T16:11:36.879Z,2.73
2022-08-30T16:14:04.776Z,2.80
2022-08-30T16:16:31.937Z,2.67
2022-08-30T16:18:59.172Z,3.27
2022-08-30T16:21:31.021Z,3.00
2022-08-30T16:23:59.006Z,2.93
2022-08-30T16:26:26.583Z,2.80
2022-08-30T16:28:53.630Z,3.70
2022-08-30T16:31:21.027Z,2.90
2022-08-30T16:33:48.244Z,3.00
2022-08-30T16:36:20.441Z,3.00
2022-08-30T16:38:48.216Z,2.83
2022-08-30T16:41:21.038Z,3.13
2022-08-30T16:43:49.414Z,3.30
2022-08-30T16:46:17.435Z,3.23
2022-08-30T16:48:45.095Z,3.27
2022-08-30T16:51:13.238Z,3.40
2022-08-30T16:53:40.171Z,3.43
2022-08-30T16:56:12.286Z,3.23
2022-08-30T16:58:39.092Z,3.50
2022-08-30T17:01:06.392Z,3.60
2022-08-30T17:03:33.246Z,3.50
2022-08-30T17:06:00.851Z,2.93
2022-08-30T17:08:27.795Z,3.40
2022-08-30T17:10:54.609Z,2.97
2022-08-30T17:13:22.748Z,3.53
2022-08-30T17:15:49.839Z,3.43
2022-08-30T17:18:17.651Z,3.42
2022-08-30T17:20:46.235Z,2.93
2022-08-30T17:23:13.705Z,3.13
2022-08-30T17:25:41.105Z,3.00
2022-08-30T17:28:08.456Z,3.23
2022-08-30T17:30:35.890Z,3.70
2022-08-30T17:33:02.793Z,3.53
2022-08-30T17:35:29.751Z,2.80
2022-08-30T17:37:57.575Z,3.30
2022-08-30T17:40:24.413Z,3.50
2022-08-30T17:42:51.406Z,3.10
2022-08-30T17:45:18.591Z,3.37
2022-08-30T17:47:45.595Z,3.10
2022-08-30T17:50:13.911Z,3.30
2022-08-30T17:52:41.232Z,3.17
2022-08-30T17:55:08.520Z,3.57
2022-08-30T17:57:36.745Z,3.07
2022-08-30T18:00:07.347Z,3.10
2022-08-30T18:02:34.810Z,3.13
2022-08-30T18:05:04.683Z,3.50
2022-08-30T18:07:31.554Z,3.50
2022-08-30T18:09:59.271Z,3.67
2022-08-30T18:12:26.903Z,3.40
2022-08-30T18:14:54.212Z,3.00
2022-08-30T18:17:21.122Z,3.20
2022-08-30T18:19:48.001Z,3.43
2022-08-30T18:22:15.836Z,3.50
2022-08-30T18:24:42.741Z,3.30
2022-08-30T18:27:09.579Z,4.00
2022-08-30T18:29:37.346Z,3.20
2022-08-30T18:32:04.694Z,3.53
2022-08-30T18:34:32.125Z,3.30
2022-08-30T18:37:00.941Z,3.73
2022-08-30T18:39:27.944Z,3.20
2022-08-30T18:42:00.913Z,3.43
2022-08-30T18:44:29.146Z,3.33
2022-08-30T18:46:57.771Z,3.57
2022-08-30T18:49:25.492Z,3.10
2022-08-30T18:51:52.433Z,3.50
2022-08-30T18:54:19.359Z,3.63
2022-08-30T18:56:46.198Z,3.60
2022-08-30T18:59:13.043Z,3.20
2022-08-30T19:01:40.424Z,3.30
2022-08-30T19:04:07.815Z,3.37
2022-08-30T19:06:34.784Z,3.20
2022-08-30T19:09:09.015Z,2.77
2022-08-30T19:11:36.590Z,3.20
2022-08-30T19:14:05.654Z,3.20
2022-08-30T19:16:35.239Z,3.47
2022-08-30T19:19:03.025Z,3.57
2022-08-30T19:21:30.144Z,3.00
2022-08-30T19:23:58.502Z,2.97
2022-08-30T19:26:27.640Z,3.10
2022-08-30T19:28:54.515Z,3.00
2022-08-30T19:31:21.420Z,3.10
2022-08-30T19:33:48.192Z,3.03
2022-08-30T19:36:15.151Z,3.30
2022-08-30T19:38:44.388Z,3.10
2022-08-30T19:41:12.496Z,3.30
2022-08-30T19:43:40.022Z,2.73
2022-08-30T19:46:07.543Z,3.40
2022-08-30T19:48:39.003Z,3.10
2022-08-30T19:51:10.180Z,3.33
2022-08-30T19:53:37.355Z,3.23
2022-08-30T19:56:04.216Z,3.00
2022-08-30T19:58:30.978Z,3.10
2022-08-30T20:03:46.149Z,3.50
2022-08-30T20:06:13.705Z,2.70
2022-08-30T20:08:40.878Z,3.13
2022-08-30T20:11:07.815Z,3.27
2022-08-30T20:13:36.050Z,2.93
2022-08-30T20:16:03.341Z,3.33
2022-08-30T20:18:30.241Z,3.20
2022-08-30T20:20:57.175Z,3.00
2022-08-30T20:23:25.424Z,2.87
2022-08-30T20:25:53.115Z,3.27
2022-08-30T20:28:21.041Z,3.10
2022-08-30T20:30:48.462Z,3.20
2022-08-30T20:33:16.564Z,3.43
2022-08-30T20:35:48.855Z,3.50
2022-08-30T20:38:25.260Z,3.23
2022-08-30T20:41:01.014Z,3.50
2022-08-30T20:43:29.348Z,3.17
2022-08-30T20:45:56.475Z,3.30
2022-08-30T20:48:23.628Z,3.10
2022-08-30T20:50:50.461Z,3.50
2022-08-30T20:53:17.334Z,3.37
2022-08-30T20:55:45.732Z,3.43
2022-08-30T20:58:13.162Z,3.00
2022-08-30T21:00:39.984Z,3.03
2022-08-30T21:03:26.172Z,3.20
2022-08-30T21:05:55.141Z,3.00
2022-08-30T21:08:22.059Z,3.20
2022-08-30T21:10:48.945Z,2.87
2022-08-30T21:13:15.816Z,3.50
2022-08-30T21:15:45.994Z,3.50
2022-08-30T21:18:13.597Z,3.10
2022-08-30T21:20:40.574Z,3.13
2022-08-30T21:23:07.320Z,3.47
2022-08-30T21:25:34.302Z,3.20
2022-08-30T21:28:01.343Z,3.97
2022-08-30T21:30:28.285Z,3.47
2022-08-30T21:32:55.439Z,3.37
2022-08-30T21:35:46.116Z,3.53
2022-08-30T21:38:13.042Z,3.80
2022-08-30T21:40:40.570Z,3.30
2022-08-30T21:43:07.792Z,3.70
2022-08-30T21:45:38.641Z,3.37
2022-08-30T21:48:05.865Z,3.70
2022-08-30T21:50:32.825Z,3.60
2022-08-30T21:53:00.131Z,3.50
2022-08-30T21:55:27.130Z,3.43
2022-08-30T21:57:54.626Z,3.70
2022-08-30T22:00:22.142Z,3.67
2022-08-30T22:02:49.209Z,3.57
2022-08-30T22:05:20.543Z,3.70
2022-08-30T22:07:47.413Z,3.83
2022-08-30T22:10:15.444Z,4.10
2022-08-30T22:12:42.256Z,3.43
2022-08-30T22:15:09.240Z,4.00
2022-08-30T22:17:36.102Z,4.03
2022-08-30T22:20:04.257Z,4.43
2022-08-30T22:22:31.052Z,4.27
2022-08-30T22:24:58.045Z,3.90
2022-08-30T22:27:24.814Z,4.33
2022-08-30T22:29:51.694Z,3.97
2022-08-30T22:32:18.914Z,3.83
2022-08-30T22:34:46.228Z,4.13
2022-08-30T22:37:13.024Z,4.23
2022-08-30T22:39:39.808Z,4.90
2022-08-30T22:42:07.720Z,4.57
2022-08-30T22:44:34.577Z,4.40
2022-08-30T22:47:01.660Z,4.30
2022-08-30T22:49:28.610Z,4.80
2022-08-30T22:51:55.375Z,4.07
2022-08-30T22:54:22.234Z,4.60
2022-08-30T22:56:49.881Z,4.40
2022-08-30T22:59:16.739Z,4.53
2022-08-30T23:01:43.762Z,4.90
2022-08-30T23:04:11.306Z,4.07
2022-08-30T23:06:38.206Z,4.23
2022-08-30T23:09:05.681Z,4.10
2022-08-30T23:11:33.291Z,4.60
2022-08-30T23:14:00.922Z,4.87
2022-08-30T23:16:27.805Z,4.63
2022-08-30T23:18:54.670Z,4.87
2022-08-30T23:21:22.711Z,4.80
2022-08-30T23:24:09.067Z,4.23
2022-08-30T23:26:54.513Z,4.20
2022-08-30T23:29:40.189Z,4.37
2022-08-30T23:32:25.976Z,4.63
2022-08-30T23:35:11.381Z,4.60
2022-08-30T23:37:57.730Z,4.30
2022-08-30T23:40:43.991Z,4.93
2022-08-30T23:43:29.789Z,4.63
2022-08-30T23:46:19.441Z,4.60
2022-08-30T23:49:08.690Z,4.90
2022-08-30T23:51:55.032Z,4.83
2022-08-30T23:54:41.027Z,4.93
2022-08-30T23:57:26.563Z,4.80
